createdAt,value
2019-02-28T00:01:52.670Z,10.17
2019-02-28T00:04:35.507Z,9.60
2019-02-28T00:07:18.689Z,9.67
2019-02-28T00:10:01.304Z,9.67
2019-02-28T00:12:45.214Z,10.57
2019-02-28T00:15:30.361Z,10.80
2019-02-28T00:18:15.191Z,10.30
2019-02-28T00:20:57.935Z,10.23
2019-02-28T00:23:40.656Z,9.37
2019-02-28T00:26:23.347Z,10.03
2019-02-28T00:29:09.423Z,9.50
2019-02-28T00:31:54.072Z,9.03
2019-02-28T00:34:39.935Z,9.53
2019-02-28T00:37:24.687Z,8.10
2019-02-28T00:40:08.467Z,7.83
2019-02-28T00:42:51.865Z,6.53
2019-02-28T00:45:37.132Z,6.73
2019-02-28T00:48:21.675Z,7.27
2019-02-28T00:51:08.977Z,8.73
2019-02-28T00:53:53.425Z,7.60
2019-02-28T00:56:36.093Z,7.17
2019-02-28T00:59:19.157Z,7.67
2019-02-28T01:02:03.161Z,8.40
2019-02-28T01:04:46.629Z,7.03
2019-02-28T01:07:32.188Z,7.30
2019-02-28T01:10:15.700Z,7.03
2019-02-28T01:12:59.660Z,5.73
2019-02-28T01:15:45.032Z,6.40
2019-02-28T01:18:27.335Z,5.50
2019-02-28T01:21:10.549Z,5.20
2019-02-28T01:23:54.041Z,6.53
2019-02-28T01:26:35.550Z,6.73
2019-02-28T01:29:18.355Z,4.90
2019-02-28T01:32:03.315Z,5.67
2019-02-28T01:34:45.859Z,5.73
2019-02-28T01:37:28.584Z,5.03
2019-02-28T01:40:11.956Z,4.30
2019-02-28T01:42:55.156Z,4.50
2019-02-28T01:45:38.063Z,3.87
2019-02-28T01:48:22.656Z,3.97
2019-02-28T01:51:05.731Z,3.63
2019-02-28T01:53:50.453Z,4.27
2019-02-28T01:56:36.712Z,3.80
2019-02-28T01:59:21.650Z,4.43
2019-02-28T02:02:06.727Z,3.67
2019-02-28T02:04:50.737Z,5.73
2019-02-28T02:07:35.887Z,4.80
2019-02-28T02:10:22.904Z,6.27
2019-02-28T02:13:06.321Z,4.80
2019-02-28T02:15:52.093Z,5.13
2019-02-28T02:18:34.871Z,4.17
2019-02-28T02:21:19.818Z,5.63
2019-02-28T02:24:05.080Z,5.53
2019-02-28T02:26:48.155Z,4.87
2019-02-28T02:29:32.460Z,6.70
2019-02-28T02:32:16.382Z,5.33
2019-02-28T02:35:06.281Z,4.10
2019-02-28T02:37:44.753Z,5.07
2019-02-28T02:40:27.488Z,5.33
2019-02-28T02:43:10.209Z,5.90
2019-02-28T02:45:55.395Z,5.33
2019-02-28T02:48:42.370Z,5.87
2019-02-28T02:51:23.164Z,5.30
2019-02-28T02:54:07.561Z,5.40
2019-02-28T02:56:50.589Z,6.13
2019-02-28T02:59:39.087Z,6.00
2019-02-28T03:02:18.650Z,7.00
2019-02-28T03:05:04.301Z,6.17
2019-02-28T03:07:49.690Z,5.93
2019-02-28T03:10:32.778Z,6.00
2019-02-28T03:13:15.389Z,5.20
2019-02-28T03:16:00.497Z,5.57
2019-02-28T03:18:44.004Z,5.92
2019-02-28T03:21:28.954Z,6.13
2019-02-28T03:24:15.145Z,5.70
2019-02-28T03:26:56.853Z,6.63
2019-02-28T03:29:43.366Z,5.80
2019-02-28T03:32:23.704Z,5.57
2019-02-28T03:35:08.973Z,5.00
2019-02-28T03:37:52.000Z,6.07
2019-02-28T03:40:39.799Z,4.93
2019-02-28T03:43:20.350Z,4.27
2019-02-28T03:46:06.490Z,4.30
2019-02-28T03:48:48.253Z,4.30
2019-02-28T03:51:31.000Z,3.90
2019-02-28T03:54:14.833Z,4.70
2019-02-28T03:56:59.784Z,5.00
2019-02-28T03:59:42.385Z,4.50
2019-02-28T04:02:25.128Z,5.22
2019-02-28T04:05:08.067Z,4.80
2019-02-28T04:07:54.838Z,4.40
2019-02-28T04:10:37.750Z,4.60
2019-02-28T04:13:21.140Z,4.50
2019-02-28T04:16:09.144Z,4.73
2019-02-28T04:18:49.206Z,5.70
2019-02-28T04:21:32.901Z,5.10
2019-02-28T04:24:15.550Z,5.70
2019-02-28T04:26:58.331Z,6.63
2019-02-28T04:29:41.828Z,6.87
2019-02-28T04:32:27.695Z,6.70
2019-02-28T04:35:08.771Z,6.53
2019-02-28T04:37:52.123Z,7.40
2019-02-28T04:40:35.613Z,7.40
2019-02-28T04:43:19.905Z,7.17
2019-02-28T04:46:04.351Z,8.00
2019-02-28T04:48:48.489Z,7.70
2019-02-28T04:54:16.912Z,6.93
2019-02-28T04:57:01.460Z,7.90
2019-02-28T04:59:44.832Z,8.00
2019-02-28T05:02:29.861Z,7.47
2019-02-28T05:05:14.750Z,6.67
2019-02-28T05:07:57.810Z,7.70
2019-02-28T05:10:40.940Z,7.70
2019-02-28T05:13:24.234Z,7.37
2019-02-28T05:16:09.345Z,7.43
2019-02-28T05:18:51.907Z,6.30
2019-02-28T05:21:35.429Z,6.83
2019-02-28T05:24:20.119Z,6.50
2019-02-28T05:27:03.543Z,6.93
2019-02-28T05:29:46.794Z,5.67
2019-02-28T05:32:32.118Z,6.43
2019-02-28T05:35:18.114Z,6.30
2019-02-28T05:38:00.660Z,5.80
2019-02-28T05:40:43.853Z,5.83
2019-02-28T05:43:29.172Z,5.90
2019-02-28T05:46:11.817Z,5.23
2019-02-28T05:48:55.368Z,5.83
2019-02-28T05:51:38.893Z,5.27
2019-02-28T05:54:22.464Z,5.10
2019-02-28T05:57:08.244Z,6.20
2019-02-28T05:59:50.669Z,5.53
2019-02-28T06:02:33.162Z,5.40
2019-02-28T06:05:16.646Z,5.27
2019-02-28T06:08:00.489Z,5.40
2019-02-28T06:10:44.674Z,5.80
2019-02-28T06:13:27.380Z,5.20
2019-02-28T06:16:12.350Z,5.30
2019-02-28T06:18:57.550Z,4.90
2019-02-28T06:21:41.107Z,4.80
2019-02-28T06:24:27.935Z,4.77
2019-02-28T06:27:10.549Z,4.20
2019-02-28T06:29:55.947Z,4.80
2019-02-28T06:32:39.373Z,5.10
2019-02-28T06:35:22.302Z,5.20
2019-02-28T06:38:06.735Z,4.57
2019-02-28T06:40:50.024Z,4.77
2019-02-28T06:46:41.620Z,4.00
2019-02-28T06:49:24.527Z,4.85
2019-02-28T06:52:07.537Z,4.37
2019-02-28T06:54:50.755Z,3.37
2019-02-28T06:57:34.104Z,3.80
2019-02-28T07:00:20.648Z,3.60
2019-02-28T07:03:04.374Z,4.37
2019-02-28T07:05:47.704Z,3.50
2019-02-28T07:08:30.582Z,4.30
2019-02-28T07:11:14.000Z,4.23
2019-02-28T07:13:45.498Z,3.87
2019-02-28T07:16:17.068Z,5.57
2019-02-28T07:18:52.847Z,4.07
2019-02-28T07:21:21.747Z,4.33
2019-02-28T07:23:53.355Z,4.87
2019-02-28T07:26:24.845Z,4.60
2019-02-28T07:28:56.310Z,4.10
2019-02-28T07:31:28.060Z,4.30
2019-02-28T07:33:59.469Z,3.50
2019-02-28T07:36:30.861Z,4.30
2019-02-28T07:39:04.478Z,3.83
2019-02-28T07:41:36.902Z,3.30
2019-02-28T07:44:08.381Z,3.77
2019-02-28T07:46:42.600Z,2.83
2019-02-28T07:49:13.009Z,3.50
2019-02-28T07:51:44.463Z,3.00
2019-02-28T07:54:16.653Z,3.20
2019-02-28T07:56:48.206Z,3.53
2019-02-28T07:59:19.617Z,3.33
2019-02-28T08:01:51.065Z,2.93
2019-02-28T08:04:22.691Z,3.10
2019-02-28T08:06:54.927Z,3.13
2019-02-28T08:09:31.060Z,3.30
2019-02-28T08:12:02.469Z,3.60
2019-02-28T08:14:34.033Z,3.80
2019-02-28T08:17:09.040Z,3.97
2019-02-28T08:19:39.113Z,4.43
2019-02-28T08:22:10.495Z,4.17
2019-02-28T08:24:41.945Z,3.80
2019-02-28T08:27:13.764Z,4.63
2019-02-28T08:29:46.022Z,4.20
2019-02-28T08:32:17.690Z,4.67
2019-02-28T08:34:49.299Z,3.83
2019-02-28T08:37:22.427Z,4.30
2019-02-28T08:39:54.053Z,4.37
2019-02-28T08:42:25.487Z,4.70
2019-02-28T08:44:58.983Z,5.40
2019-02-28T08:47:29.958Z,5.60
2019-02-28T08:50:01.426Z,5.35
2019-02-28T08:52:32.904Z,5.12
2019-02-28T08:55:06.711Z,5.75
2019-02-28T08:57:37.861Z,5.85
2019-02-28T09:00:12.566Z,6.20
2019-02-28T09:02:44.033Z,6.33
2019-02-28T09:05:16.044Z,6.17
2019-02-28T09:07:51.349Z,5.40
2019-02-28T09:10:20.955Z,6.30
2019-02-28T09:12:52.464Z,6.65
2019-02-28T09:15:23.930Z,5.65
2019-02-28T09:17:59.353Z,6.30
2019-02-28T09:20:28.874Z,6.28
2019-02-28T09:23:02.195Z,6.45
2019-02-28T09:25:33.598Z,6.90
2019-02-28T09:28:05.119Z,6.35
2019-02-28T09:30:38.632Z,6.33
2019-02-28T09:33:10.285Z,6.15
2019-02-28T09:35:45.294Z,6.35
2019-02-28T09:38:14.979Z,6.37
2019-02-28T09:40:46.394Z,6.67
2019-02-28T09:43:17.775Z,5.67
2019-02-28T09:45:49.159Z,5.80
2019-02-28T09:48:20.563Z,5.80
2019-02-28T09:50:57.912Z,6.12
2019-02-28T09:53:25.197Z,6.28
2019-02-28T09:55:56.704Z,6.30
2019-02-28T09:58:29.365Z,5.67
2019-02-28T10:01:01.332Z,5.80
2019-02-28T10:03:34.695Z,7.12
2019-02-28T10:06:06.397Z,7.37
2019-02-28T10:08:40.186Z,7.17
2019-02-28T10:11:11.844Z,6.40
2019-02-28T10:13:42.703Z,7.30
2019-02-28T10:16:16.782Z,6.97
2019-02-28T10:18:47.216Z,6.22
2019-02-28T10:21:18.708Z,7.12
2019-02-28T10:23:50.153Z,6.17
2019-02-28T10:26:23.173Z,7.20
2019-02-28T10:28:54.638Z,7.97
2019-02-28T10:31:36.313Z,8.38
2019-02-28T10:33:59.179Z,7.28
2019-02-28T10:36:30.668Z,8.25
2019-02-28T10:39:02.796Z,7.87
2019-02-28T10:41:35.874Z,6.83
2019-02-28T10:44:07.424Z,7.53
2019-02-28T10:46:38.915Z,7.78
2019-02-28T10:49:10.371Z,8.00
2019-02-28T10:51:44.629Z,8.20
2019-02-28T10:54:17.510Z,8.68
2019-02-28T10:56:48.925Z,8.10
2019-02-28T10:59:21.360Z,8.33
2019-02-28T11:01:54.156Z,8.08
2019-02-28T11:04:27.522Z,7.55
2019-02-28T11:07:02.382Z,7.12
2019-02-28T11:09:32.686Z,7.85
2019-02-28T11:12:04.255Z,7.42
2019-02-28T11:14:38.710Z,8.20
2019-02-28T11:17:13.677Z,8.23
2019-02-28T11:19:42.424Z,7.80
2019-02-28T11:22:15.052Z,7.67
2019-02-28T11:24:48.203Z,7.97
2019-02-28T11:27:22.882Z,8.80
2019-02-28T11:29:52.784Z,8.80
2019-02-28T11:32:26.409Z,8.85
2019-02-28T11:34:57.351Z,10.48
2019-02-28T11:37:29.018Z,9.63
2019-02-28T11:40:00.480Z,9.20
2019-02-28T11:42:31.959Z,9.68
2019-02-28T11:45:03.710Z,10.15
2019-02-28T11:47:36.888Z,10.32
2019-02-28T11:50:08.412Z,9.53
2019-02-28T11:52:40.076Z,10.38
2019-02-28T11:55:12.161Z,12.15
2019-02-28T11:57:43.765Z,19.48
2019-02-28T12:00:19.831Z,11.18
2019-02-28T12:02:53.544Z,9.20
2019-02-28T12:05:24.642Z,10.00
2019-02-28T12:07:56.203Z,9.53
2019-02-28T12:10:27.958Z,10.63
2019-02-28T12:13:00.364Z,10.30
2019-02-28T12:15:32.078Z,10.55
2019-02-28T12:18:04.876Z,10.35
2019-02-28T12:20:36.575Z,10.40
2019-02-28T12:23:08.456Z,9.20
2019-02-28T12:25:42.794Z,9.73
2019-02-28T12:28:13.033Z,9.38
2019-02-28T12:30:44.581Z,8.70
2019-02-28T12:33:19.003Z,9.50
2019-02-28T12:35:49.362Z,9.33
2019-02-28T12:38:20.935Z,9.28
2019-02-28T12:40:52.458Z,8.75
2019-02-28T12:43:24.093Z,9.20
2019-02-28T12:45:56.920Z,10.18
2019-02-28T12:48:28.822Z,9.60
2019-02-28T12:51:02.280Z,9.15
2019-02-28T12:53:33.509Z,8.95
2019-02-28T12:56:05.002Z,9.83
2019-02-28T12:58:38.995Z,9.30
2019-02-28T13:01:09.550Z,9.80
2019-02-28T13:03:41.152Z,8.98
2019-02-28T13:06:12.589Z,10.95
2019-02-28T13:08:44.089Z,9.90
2019-02-28T13:11:15.593Z,10.48
2019-02-28T13:13:47.088Z,9.58
2019-02-28T13:16:20.809Z,9.00
2019-02-28T13:18:51.616Z,9.45
2019-02-28T13:21:23.090Z,9.83
2019-02-28T13:23:54.616Z,8.40
2019-02-28T13:26:26.213Z,8.98
2019-02-28T13:28:58.612Z,9.15
2019-02-28T13:31:30.123Z,9.03
2019-02-28T13:34:01.869Z,9.58
2019-02-28T13:36:33.378Z,9.65
2019-02-28T13:39:06.514Z,10.32
2019-02-28T13:41:38.450Z,9.50
2019-02-28T13:44:10.115Z,9.80
2019-02-28T13:46:41.854Z,8.80
2019-02-28T13:49:15.531Z,8.95
2019-02-28T13:51:46.463Z,9.43
2019-02-28T13:54:18.095Z,9.43
2019-02-28T13:56:49.472Z,9.73
2019-02-28T13:59:20.929Z,9.25
2019-02-28T14:01:55.465Z,9.08
2019-02-28T14:04:27.117Z,10.25
2019-02-28T14:08:59.733Z,10.75
2019-02-28T14:11:45.069Z,9.25
2019-02-28T14:14:26.437Z,10.23
2019-02-28T14:17:09.073Z,8.40
2019-02-28T14:19:52.772Z,8.90
2019-02-28T14:22:35.908Z,8.23
2019-02-28T14:25:20.133Z,10.50
2019-02-28T14:28:01.757Z,8.08
2019-02-28T14:30:46.077Z,9.50
2019-02-28T14:33:30.121Z,9.20
2019-02-28T14:36:12.421Z,8.90
2019-02-28T14:38:54.356Z,8.65
2019-02-28T14:41:37.230Z,8.55
2019-02-28T14:44:21.384Z,9.98
2019-02-28T14:47:04.174Z,7.80
2019-02-28T14:49:46.075Z,8.50
2019-02-28T14:52:28.100Z,8.10
2019-02-28T14:55:10.453Z,8.50
2019-02-28T14:57:52.641Z,8.45
2019-02-28T15:00:35.565Z,8.58
2019-02-28T15:03:19.017Z,8.45
2019-02-28T15:06:02.991Z,8.40
2019-02-28T15:08:47.431Z,8.75
2019-02-28T15:11:28.784Z,8.23
2019-02-28T15:14:11.479Z,8.05
2019-02-28T15:16:53.490Z,8.35
2019-02-28T15:19:35.442Z,7.85
2019-02-28T15:22:21.055Z,9.10
2019-02-28T15:25:01.506Z,9.20
2019-02-28T15:27:43.654Z,9.63
2019-02-28T15:30:25.493Z,8.85
2019-02-28T15:33:07.490Z,10.15
2019-02-28T15:35:50.479Z,9.37
2019-02-28T15:38:34.102Z,9.38
2019-02-28T15:41:16.211Z,9.20
2019-02-28T15:43:58.175Z,8.08
2019-02-28T15:46:40.072Z,10.82
2019-02-28T15:49:22.197Z,8.87
2019-02-28T15:52:05.285Z,9.33
2019-02-28T15:57:30.206Z,9.80
2019-02-28T16:00:12.882Z,8.40
2019-02-28T16:02:54.917Z,10.05
2019-02-28T16:05:42.429Z,8.88
2019-02-28T16:08:20.781Z,9.17
2019-02-28T16:11:03.229Z,9.23
2019-02-28T16:13:46.137Z,11.33
2019-02-28T16:16:28.180Z,9.17
2019-02-28T16:19:10.020Z,10.13
2019-02-28T16:21:52.205Z,11.75
2019-02-28T16:24:36.646Z,10.50
2019-02-28T16:27:18.937Z,9.57
2019-02-28T16:30:00.932Z,9.43
2019-02-28T16:32:45.628Z,15.70
2019-02-28T16:35:29.688Z,16.20
2019-02-28T16:38:12.154Z,11.30
2019-02-28T16:40:53.688Z,11.07
2019-02-28T16:43:35.981Z,9.63
2019-02-28T16:46:17.637Z,11.23
2019-02-28T16:48:59.896Z,11.53
2019-02-28T16:51:41.932Z,11.00
2019-02-28T16:54:26.292Z,17.40
2019-02-28T16:57:09.435Z,23.87
2019-02-28T16:59:53.624Z,13.37
2019-02-28T17:02:37.609Z,12.33
2019-02-28T17:05:26.688Z,11.13
2019-02-28T17:08:06.823Z,13.68
2019-02-28T17:10:51.484Z,12.73
2019-02-28T17:13:39.803Z,10.13
2019-02-28T17:16:25.881Z,12.77
2019-02-28T17:19:08.746Z,11.77
2019-02-28T17:21:52.280Z,11.60
2019-02-28T17:24:35.261Z,15.75
2019-02-28T17:33:20.088Z,10.27
2019-02-28T17:36:08.186Z,12.40
2019-02-28T17:38:50.096Z,12.13
2019-02-28T17:41:37.209Z,10.37
2019-02-28T17:44:19.787Z,12.57
2019-02-28T17:47:02.173Z,10.60
2019-02-28T17:49:46.406Z,36.90
2019-02-28T17:52:30.579Z,34.20
2019-02-28T17:55:11.480Z,20.17
2019-02-28T17:57:53.941Z,12.60
2019-02-28T18:00:35.937Z,13.90
2019-02-28T18:03:18.032Z,10.80
2019-02-28T18:06:00.267Z,8.70
2019-02-28T18:08:42.131Z,10.33
2019-02-28T18:11:26.060Z,9.67
2019-02-28T18:14:08.092Z,8.40
2019-02-28T18:16:54.589Z,10.20
2019-02-28T18:19:36.980Z,8.90
2019-02-28T18:22:20.773Z,9.53
2019-02-28T18:25:02.590Z,9.00
2019-02-28T18:27:46.749Z,10.32
2019-02-28T18:30:30.097Z,10.03
2019-02-28T18:33:11.953Z,9.23
2019-02-28T18:35:54.683Z,9.17
2019-02-28T18:38:38.683Z,11.40
2019-02-28T18:41:22.767Z,10.77
2019-02-28T18:44:07.716Z,42.50
2019-02-28T18:46:52.612Z,65.13
2019-02-28T18:49:34.360Z,27.57
2019-02-28T18:52:15.999Z,16.63
2019-02-28T18:55:05.783Z,13.13
2019-02-28T18:57:41.714Z,11.13
2019-02-28T19:00:24.329Z,10.20
2019-02-28T19:03:08.372Z,8.93
2019-02-28T19:05:50.192Z,9.03
2019-02-28T19:08:31.969Z,9.83
2019-02-28T19:11:15.034Z,10.07
2019-02-28T19:13:58.651Z,8.70
2019-02-28T19:16:41.477Z,9.53
2019-02-28T19:19:23.065Z,8.17
2019-02-28T19:22:05.829Z,7.80
2019-02-28T19:24:47.962Z,8.83
2019-02-28T19:27:31.091Z,18.67
2019-02-28T19:30:15.918Z,13.63
2019-02-28T19:32:57.815Z,10.57
2019-02-28T19:35:39.609Z,10.17
2019-02-28T19:38:22.497Z,43.53
2019-02-28T19:41:04.427Z,26.90
2019-02-28T19:43:47.637Z,9.80
2019-02-28T19:46:29.619Z,9.87
2019-02-28T19:49:13.645Z,8.87
2019-02-28T19:51:55.426Z,9.30
2019-02-28T19:54:37.145Z,8.23
2019-02-28T19:57:19.313Z,9.93
2019-02-28T20:00:01.225Z,8.33
2019-02-28T20:02:44.311Z,9.30
2019-02-28T20:05:26.072Z,9.60
2019-02-28T20:08:08.302Z,9.27
2019-02-28T20:10:50.539Z,8.07
2019-02-28T20:13:32.461Z,9.77
2019-02-28T20:16:17.397Z,8.50
2019-02-28T20:19:02.413Z,10.07
2019-02-28T20:21:44.416Z,8.93
2019-02-28T20:24:28.363Z,7.00
2019-02-28T20:27:10.522Z,9.63
2019-02-28T20:29:55.296Z,17.97
2019-02-28T20:32:36.768Z,21.45
2019-02-28T20:35:26.112Z,9.47
2019-02-28T20:38:03.189Z,8.53
2019-02-28T20:40:45.416Z,8.63
2019-02-28T20:43:29.536Z,10.20
2019-02-28T20:46:11.857Z,8.03
2019-02-28T20:48:53.834Z,9.00
2019-02-28T20:51:35.886Z,7.50
2019-02-28T20:54:17.739Z,8.77
2019-02-28T20:57:00.441Z,8.17
2019-02-28T20:59:44.594Z,7.33
2019-02-28T21:02:30.606Z,7.80
2019-02-28T21:05:16.417Z,7.50
2019-02-28T21:07:58.268Z,7.73
2019-02-28T21:10:42.516Z,8.25
2019-02-28T21:13:28.634Z,8.53
2019-02-28T21:16:10.827Z,8.37
2019-02-28T21:18:52.738Z,8.57
2019-02-28T21:21:36.731Z,7.20
2019-02-28T21:24:18.583Z,8.30
2019-02-28T21:27:02.717Z,10.32
2019-02-28T21:29:44.764Z,18.13
2019-02-28T21:32:26.418Z,19.17
2019-02-28T21:35:09.076Z,10.80
2019-02-28T21:37:53.694Z,8.63
2019-02-28T21:40:36.611Z,7.70
2019-02-28T21:43:22.342Z,8.43
2019-02-28T21:46:04.176Z,6.90
2019-02-28T21:48:48.329Z,7.30
2019-02-28T21:51:31.832Z,6.43
2019-02-28T21:54:15.793Z,7.53
2019-02-28T21:56:58.122Z,10.13
2019-02-28T21:59:40.142Z,8.47
2019-02-28T22:02:23.938Z,8.23
2019-02-28T22:05:06.036Z,8.03
2019-02-28T22:07:48.561Z,8.43
2019-02-28T22:10:31.282Z,7.53
2019-02-28T22:13:13.330Z,7.67
2019-02-28T22:15:55.038Z,8.40
2019-02-28T22:18:37.394Z,7.50
2019-02-28T22:21:19.489Z,7.17
2019-02-28T22:24:01.568Z,8.07
2019-02-28T22:26:43.640Z,9.33
2019-02-28T22:29:25.822Z,9.67
2019-02-28T22:32:24.557Z,9.53
2019-02-28T22:35:29.412Z,12.10
2019-02-28T22:38:11.626Z,11.30
2019-02-28T22:40:55.689Z,9.87
2019-02-28T22:43:37.848Z,8.30
2019-02-28T22:46:20.065Z,9.83
2019-02-28T22:49:02.553Z,10.33
2019-02-28T22:51:46.516Z,12.10
2019-02-28T22:54:28.347Z,10.90
2019-02-28T22:57:10.490Z,10.15
2019-02-28T22:59:53.555Z,11.17
2019-02-28T23:02:35.532Z,11.10
2019-02-28T23:05:17.622Z,12.17
2019-02-28T23:08:00.221Z,11.63
2019-02-28T23:10:42.208Z,13.00
2019-02-28T23:13:26.035Z,12.10
2019-02-28T23:16:08.469Z,13.50
2019-02-28T23:18:51.049Z,13.43
2019-02-28T23:21:34.141Z,11.93
2019-02-28T23:24:16.072Z,14.43
2019-02-28T23:26:59.019Z,12.03
2019-02-28T23:29:40.858Z,13.87
2019-02-28T23:32:22.555Z,13.00
2019-02-28T23:35:06.226Z,13.27
2019-02-28T23:37:48.299Z,12.73
2019-02-28T23:40:30.456Z,13.37
2019-02-28T23:43:12.284Z,13.00
2019-02-28T23:45:54.312Z,15.75
2019-02-28T23:48:36.088Z,15.07
2019-02-28T23:51:17.894Z,14.07
2019-02-28T23:54:00.579Z,13.63
2019-02-28T23:56:42.541Z,14.10
2019-02-28T23:59:24.329Z,14.33
